Time;durP1;ratioP1;P1;durP2;ratioP2;P2;SDS_P1;SDS_P2;PMS_P1;PMS_P2;Temp;Humidity;BMP_temperature;BMP_pressure;BME280_temperature;BME280_humidity;BME280_pressure;Samples;Min_cycle;Max_cycle;Signal;HPM_P1;HPM_P2
2024/03/18 00:01:38;;;;;;;17.95;10.13;;;;;;;2.22;100.00;98779.19;6107584;19;20002;-70
2024/03/18 00:03:38;;;;;;;18.13;9.90;;;;;;;2.18;100.00;98776.31;6109424;19;20776;-70
2024/03/18 00:05:39;;;;;;;18.85;10.38;;;;;;;2.13;100.00;98775.63;6105616;19;20006;-70
2024/03/18 00:07:39;;;;;;;25.10;10.82;;;;;;;2.07;100.00;98777.72;6107871;19;20007;-70
2024/03/18 00:09:39;;;;;;;18.70;10.57;;;;;;;2.04;100.00;98770.16;6108135;19;20036;-70
2024/03/18 00:11:40;;;;;;;18.98;9.82;;;;;;;2.03;100.00;98773.19;6108599;19;20467;-70
2024/03/18 00:13:40;;;;;;;17.80;9.77;;;;;;;2.00;100.00;98774.63;6107107;19;20045;-70
2024/03/18 00:15:40;;;;;;;20.50;9.55;;;;;;;1.96;100.00;98768.19;6106887;19;20236;-70
2024/03/18 00:17:43;;;;;;;20.08;11.35;;;;;;;1.93;100.00;98760.63;6108374;19;20002;-70
2024/03/18 00:19:44;;;;;;;23.23;10.15;;;;;;;1.87;100.00;98762.69;6107800;19;20058;-70
2024/03/18 00:21:44;;;;;;;19.67;9.88;;;;;;;1.84;100.00;98748.88;6106481;19;20542;-70
2024/03/18 00:23:45;;;;;;;18.58;10.35;;;;;;;1.84;100.00;98757.06;6108400;19;20371;-70
2024/03/18 00:25:45;;;;;;;19.73;10.30;;;;;;;1.82;100.00;98757.38;6105923;19;20009;-70
2024/03/18 00:27:45;;;;;;;19.92;10.73;;;;;;;1.78;100.00;98758.31;6107136;19;20010;-70
2024/03/18 00:29:46;;;;;;;19.15;10.82;;;;;;;1.72;100.00;98749.44;6107555;19;20308;-70
2024/03/18 00:31:46;;;;;;;17.05;9.93;;;;;;;1.73;100.00;98739.34;6106829;19;20013;-70
2024/03/18 00:33:46;;;;;;;19.00;10.85;;;;;;;1.70;100.00;98746.22;6106494;19;20507;-70
2024/03/18 00:35:47;;;;;;;20.25;10.45;;;;;;;1.67;100.00;98747.66;6105645;19;20513;-70
2024/03/18 00:37:47;;;;;;;22.13;10.05;;;;;;;1.63;100.00;98737.69;6107892;19;20007;-70
2024/03/18 00:39:47;;;;;;;17.35;10.30;;;;;;;1.62;100.00;98738.81;6107116;19;20014;-70
2024/03/18 00:41:48;;;;;;;19.25;11.13;;;;;;;1.61;100.00;98740.72;6106627;19;20093;-70
2024/03/18 00:43:49;;;;;;;19.27;10.40;;;;;;;1.58;100.00;98740.56;6107881;19;20021;-70
2024/03/18 00:45:52;;;;;;;20.27;9.18;;;;;;;1.56;100.00;98738.13;6105208;19;20070;-70
2024/03/18 00:47:52;;;;;;;19.95;10.48;;;;;;;1.56;100.00;98742.78;6107507;19;20024;-70
2024/03/18 00:49:54;;;;;;;21.70;10.48;;;;;;;1.59;100.00;98742.97;6106303;19;20003;-70
2024/03/18 00:51:54;;;;;;;16.60;9.48;;;;;;;1.62;100.00;98734.16;6104915;19;20030;-70
2024/03/18 00:53:55;;;;;;;16.15;9.02;;;;;;;1.61;100.00;98738.00;6106380;19;20420;-70
2024/03/18 00:55:55;;;;;;;18.67;10.48;;;;;;;1.59;100.00;98732.06;6105312;19;20007;-70
2024/03/18 00:57:55;;;;;;;16.45;9.68;;;;;;;1.56;100.00;98719.03;6109512;19;20324;-71
2024/03/18 00:59:56;;;;;;;17.20;9.75;;;;;;;1.55;100.00;98719.34;6111656;19;20007;-71
2024/03/18 01:01:56;;;;;;;18.65;9.95;;;;;;;1.51;100.00;98718.38;6111310;19;20017;-71
2024/03/18 01:03:56;;;;;;;17.65;10.23;;;;;;;1.47;100.00;98720.91;6112499;19;20045;-70
2024/03/18 01:05:57;;;;;;;19.60;10.40;;;;;;;1.43;100.00;98714.50;6111037;19;20002;-70
2024/03/18 01:07:57;;;;;;;18.63;9.73;;;;;;;1.39;100.00;98721.66;6111271;19;20006;-70
2024/03/18 01:09:57;;;;;;;17.95;10.07;;;;;;;1.35;100.00;98715.25;6103035;19;20009;-70
2024/03/18 01:11:58;;;;;;;20.83;10.35;;;;;;;1.32;100.00;98719.38;6112284;19;20006;-70
2024/03/18 01:13:58;;;;;;;18.00;9.48;;;;;;;1.34;100.00;98713.63;6111213;19;20003;-70
2024/03/18 01:15:59;;;;;;;19.73;10.05;;;;;;;1.33;100.00;98707.38;6108948;19;20474;-70
2024/03/18 01:17:59;;;;;;;17.65;9.82;;;;;;;1.34;100.00;98710.91;6112059;19;20470;-70
2024/03/18 01:20:00;;;;;;;18.80;10.52;;;;;;;1.33;100.00;98707.38;6111335;19;20033;-70
2024/03/18 01:22:00;;;;;;;17.00;8.77;;;;;;;1.36;100.00;98708.66;6112279;19;20002;-70
2024/03/18 01:24:01;;;;;;;16.40;9.25;;;;;;;1.33;100.00;98701.94;6111409;19;20019;-71
2024/03/18 01:26:01;;;;;;;17.92;9.18;;;;;;;1.34;100.00;98705.47;6109711;19;20027;-71
2024/03/18 01:28:02;;;;;;;15.98;8.32;;;;;;;1.31;100.00;98695.16;6110937;19;20333;-71
2024/03/18 01:30:02;;;;;;;13.38;8.35;;;;;;;1.29;100.00;98694.66;6111081;19;20011;-71
2024/03/18 01:32:03;;;;;;;16.73;8.20;;;;;;;1.25;100.00;98696.44;6111674;19;20091;-71
2024/03/18 01:34:04;;;;;;;19.08;9.07;;;;;;;1.24;100.00;98692.91;6110518;19;20117;-71
2024/03/18 01:36:05;;;;;;;17.55;9.48;;;;;;;1.21;100.00;98696.22;6107329;19;20014;-70
2024/03/18 01:38:05;;;;;;;15.25;9.15;;;;;;;1.19;100.00;98693.00;6111447;19;19998;-70
2024/03/18 01:40:12;;;;;;;17.52;9.23;;;;;;;1.20;100.00;98688.38;6111081;19;20018;-71
2024/03/18 01:42:13;;;;;;;14.85;8.07;;;;;;;1.20;100.00;98693.81;6110978;19;20332;-70
2024/03/18 01:44:14;;;;;;;13.48;8.27;;;;;;;1.17;100.00;98692.53;6110961;19;20024;-71
2024/03/18 01:46:17;;;;;;;17.95;8.73;;;;;;;1.13;100.00;98692.31;6109797;19;20014;-71
2024/03/18 01:48:18;;;;;;;15.15;8.68;;;;;;;1.08;100.00;98691.66;6111464;19;20048;-70
2024/03/18 01:50:19;;;;;;;19.85;9.00;;;;;;;1.08;100.00;98683.50;6111423;19;20442;-70
2024/03/18 01:52:20;;;;;;;18.92;8.82;;;;;;;1.07;100.00;98679.13;6109123;19;20014;-70
2024/03/18 01:54:21;;;;;;;17.45;8.55;;;;;;;1.00;100.00;98676.06;6110514;19;20010;-70
2024/03/18 01:56:21;;;;;;;17.77;8.95;;;;;;;0.96;100.00;98669.59;6109434;19;20021;-70
2024/03/18 01:58:22;;;;;;;12.38;8.02;;;;;;;0.90;100.00;98676.28;6110589;19;20032;-70
2024/03/18 02:00:41;;;;;;;17.48;9.13;;;;;;;0.81;100.00;98676.22;6110158;19;20019;-71
2024/03/18 02:02:42;;;;;;;17.33;8.77;;;;;;;0.74;100.00;98673.13;6111516;19;20239;-70
2024/03/18 02:04:42;;;;;;;14.38;8.55;;;;;;;0.69;100.00;98676.78;6111432;19;20062;-70
2024/03/18 02:06:43;;;;;;;13.68;8.65;;;;;;;0.66;100.00;98669.22;6107339;19;20010;-70
2024/03/18 02:08:43;;;;;;;18.05;8.23;;;;;;;0.62;100.00;98673.69;6110379;19;20086;-70
2024/03/18 02:10:44;;;;;;;17.10;8.73;;;;;;;0.59;100.00;98670.78;6102269;19;20007;-70
2024/03/18 02:12:45;;;;;;;14.98;8.20;;;;;;;0.59;100.00;98674.31;6103355;19;20010;-70
2024/03/18 02:14:51;;;;;;;14.52;8.55;;;;;;;0.55;100.00;98670.56;6104140;19;19998;-70
2024/03/18 02:16:52;;;;;;;14.23;8.00;;;;;;;0.58;100.00;98675.44;6103350;19;20010;-70
2024/03/18 02:18:52;;;;;;;12.65;7.80;;;;;;;0.57;100.00;98671.06;6103511;19;20020;-70
2024/03/18 02:20:53;;;;;;;16.50;8.40;;;;;;;0.62;100.00;98675.59;6104419;19;20002;-70
2024/03/18 02:22:54;;;;;;;13.52;7.90;;;;;;;0.65;100.00;98673.06;6103760;19;20457;-70
2024/03/18 02:24:54;;;;;;;16.52;8.75;;;;;;;0.64;100.00;98668.72;6104348;19;20078;-70
2024/03/18 02:26:54;;;;;;;15.23;8.38;;;;;;;0.65;100.00;98666.81;6101836;19;20015;-70
2024/03/18 02:28:55;;;;;;;18.63;8.32;;;;;;;0.67;100.00;98662.69;6103083;19;19995;-70
2024/03/18 02:30:55;;;;;;;13.68;7.47;;;;;;;0.67;100.00;98659.97;6103802;19;20107;-70
2024/03/18 02:32:55;;;;;;;15.35;7.43;;;;;;;0.64;100.00;98659.75;6103693;19;20019;-70
2024/03/18 02:34:56;;;;;;;14.90;7.40;;;;;;;0.61;100.00;98669.34;6102990;19;20016;-70
2024/03/18 02:36:57;;;;;;;16.70;8.68;;;;;;;0.56;100.00;98664.81;6103011;19;20819;-70
2024/03/18 02:38:57;;;;;;;15.10;7.95;;;;;;;0.52;100.00;98657.59;6103822;19;20009;-70
2024/03/18 02:40:57;;;;;;;15.05;7.85;;;;;;;0.45;100.00;98655.28;6103437;19;19998;-70
2024/03/18 02:42:58;;;;;;;15.73;7.78;;;;;;;0.41;100.00;98656.19;6103774;19;20010;-70
2024/03/18 02:44:58;;;;;;;15.68;7.55;;;;;;;0.33;100.00;98655.00;6103525;19;20028;-70
2024/03/18 02:46:58;;;;;;;15.00;8.52;;;;;;;0.26;100.00;98658.16;6102102;19;20014;-70
2024/03/18 02:48:59;;;;;;;15.57;7.80;;;;;;;0.19;100.00;98651.53;6103180;19;20478;-70
2024/03/18 02:50:59;;;;;;;16.13;8.18;;;;;;;0.14;100.00;98659.78;6103822;19;20666;-70
2024/03/18 02:52:59;;;;;;;17.35;8.65;;;;;;;0.13;100.00;98645.38;6101157;19;20010;-70
2024/03/18 02:55:00;;;;;;;15.68;7.65;;;;;;;0.14;100.00;98651.63;6103171;19;20030;-70
2024/03/18 02:57:00;;;;;;;16.65;7.65;;;;;;;0.13;100.00;98650.81;6101989;19;20062;-70
2024/03/18 02:59:00;;;;;;;15.60;8.13;;;;;;;0.10;100.00;98658.81;6103619;19;20010;-70
2024/03/18 03:01:01;;;;;;;13.77;7.82;;;;;;;0.06;100.00;98655.88;6102139;19;20003;-70
2024/03/18 03:03:01;;;;;;;15.18;7.70;;;;;;;0.01;100.00;98652.47;6103096;19;20035;-70
2024/03/18 03:05:02;;;;;;;13.32;7.88;;;;;;;-0.04;100.00;98654.19;6102956;19;20527;-70
2024/03/18 03:07:03;;;;;;;15.95;8.80;;;;;;;-0.08;100.00;98644.22;6101332;19;20019;-70
2024/03/18 03:09:03;;;;;;;16.38;8.93;;;;;;;-0.11;100.00;98644.81;6101070;19;20038;-70
2024/03/18 03:11:04;;;;;;;15.13;8.23;;;;;;;-0.06;100.00;98634.63;6110149;19;20052;-70
2024/03/18 03:13:05;;;;;;;15.32;8.43;;;;;;;-0.06;100.00;98637.38;6109231;19;20236;-70
2024/03/18 03:15:06;;;;;;;14.85;8.43;;;;;;;-0.10;100.00;98639.06;6109505;19;20002;-70
2024/03/18 03:17:07;;;;;;;12.75;7.60;;;;;;;-0.15;100.00;98633.75;6107835;19;20384;-70
2024/03/18 03:19:08;;;;;;;15.10;7.95;;;;;;;-0.20;100.00;98630.31;6109731;19;20463;-70
2024/03/18 03:21:09;;;;;;;13.98;7.57;;;;;;;-0.26;100.00;98632.31;6107894;19;20005;-70
2024/03/18 03:23:11;;;;;;;14.00;8.10;;;;;;;-0.30;100.00;98634.84;6109890;19;20361;-70
2024/03/18 03:25:12;;;;;;;13.45;7.97;;;;;;;-0.30;100.00;98639.50;6109262;19;20011;-70
2024/03/18 03:27:13;;;;;;;17.88;8.23;;;;;;;-0.33;100.00;98632.75;6107669;19;20344;-70
2024/03/18 03:29:13;;;;;;;15.65;8.50;;;;;;;-0.38;100.00;98623.88;6108530;19;20350;-70
2024/03/18 03:31:14;;;;;;;16.95;8.80;;;;;;;-0.40;100.00;98632.34;6108174;19;20038;-70
2024/03/18 03:33:14;;;;;;;15.18;8.05;;;;;;;-0.44;100.00;98636.75;6109022;19;20041;-70
2024/03/18 03:35:15;;;;;;;17.08;8.73;;;;;;;-0.45;100.00;98628.91;6108549;19;20010;-70
2024/03/18 03:37:15;;;;;;;16.13;7.90;;;;;;;-0.47;100.00;98626.50;6106995;19;19999;-70
2024/03/18 03:39:16;;;;;;;15.60;8.23;;;;;;;-0.48;100.00;98630.34;6108908;19;20346;-70
2024/03/18 03:41:16;;;;;;;18.08;9.13;;;;;;;-0.51;100.00;98630.13;6108085;19;20412;-70
2024/03/18 03:43:16;;;;;;;14.63;7.88;;;;;;;-0.54;100.00;98633.44;6106547;19;20536;-70
2024/03/18 03:45:21;;;;;;;18.38;8.57;;;;;;;-0.55;100.00;98626.41;6109118;19;20007;-70
2024/03/18 03:47:22;;;;;;;15.88;7.40;;;;;;;-0.51;100.00;98633.63;6107688;19;20019;-70
2024/03/18 03:49:22;;;;;;;15.25;8.50;;;;;;;-0.50;100.00;98623.56;6108844;19;20011;-70
2024/03/18 03:51:23;;;;;;;14.65;8.30;;;;;;;-0.51;100.00;98625.50;6106875;19;20018;-70
2024/03/18 03:53:25;;;;;;;13.65;8.05;;;;;;;-0.54;100.00;98619.88;6105390;19;20014;-70
2024/03/18 03:55:25;;;;;;;17.92;7.68;;;;;;;-0.57;100.00;98624.00;6108186;19;20011;-70
2024/03/18 03:57:25;;;;;;;16.55;7.97;;;;;;;-0.60;100.00;98628.09;6107976;19;20007;-70
2024/03/18 03:59:26;;;;;;;14.77;8.15;;;;;;;-0.61;100.00;98623.78;6105796;19;20045;-71
2024/03/18 04:01:26;;;;;;;14.60;8.48;;;;;;;-0.58;100.00;98614.22;6106990;19;20013;-70
2024/03/18 04:03:27;;;;;;;13.05;7.55;;;;;;;-0.61;100.00;98618.34;6108000;19;20010;-71
2024/03/18 04:05:27;;;;;;;14.95;6.90;;;;;;;-0.61;100.00;98610.19;6107986;19;20014;-71
2024/03/18 04:07:27;;;;;;;14.68;7.80;;;;;;;-0.58;100.00;98603.34;6107471;19;20015;-70
2024/03/18 04:09:28;;;;;;;15.13;7.70;;;;;;;-0.60;100.00;98611.78;6107103;19;20018;-71
2024/03/18 04:11:28;;;;;;;13.25;7.45;;;;;;;-0.51;100.00;98611.91;6107585;19;20006;-71
2024/03/18 04:13:28;;;;;;;13.20;7.82;;;;;;;-0.41;100.00;98610.91;6108165;19;20010;-71
2024/03/18 04:15:29;;;;;;;14.30;7.85;;;;;;;-0.40;100.00;98610.59;6108282;19;20006;-71
2024/03/18 04:17:30;;;;;;;13.60;7.43;;;;;;;-0.32;100.00;98612.63;6107765;19;20006;-71
2024/03/18 04:19:32;;;;;;;14.60;7.80;;;;;;;-0.26;100.00;98612.50;6108341;19;20467;-71
2024/03/18 04:21:32;;;;;;;16.63;7.90;;;;;;;-0.31;100.00;98611.50;6108711;19;20030;-71
2024/03/18 04:23:33;;;;;;;15.07;7.88;;;;;;;-0.37;100.00;98614.63;6108084;19;20046;-71
2024/03/18 04:25:33;;;;;;;13.07;7.70;;;;;;;-0.40;100.00;98604.38;6106974;19;20008;-71
2024/03/18 04:27:34;;;;;;;12.68;7.82;;;;;;;-0.41;100.00;98598.13;6107912;19;20010;-71
2024/03/18 04:29:34;;;;;;;13.10;6.95;;;;;;;-0.38;100.00;98604.84;6108270;19;20739;-70
2024/03/18 04:31:34;;;;;;;14.40;7.97;;;;;;;-0.42;100.00;98596.50;6108644;19;20010;-70
2024/03/18 04:33:35;;;;;;;16.80;7.78;;;;;;;-0.42;100.00;98603.84;6103551;19;20002;-71
2024/03/18 04:35:35;;;;;;;12.02;7.07;;;;;;;-0.42;100.00;98598.41;6102189;19;20011;-70
2024/03/18 04:37:40;;;;;;;14.18;7.10;;;;;;;-0.40;100.00;98598.94;6104260;19;20050;-71
2024/03/18 04:39:40;;;;;;;16.38;7.57;;;;;;;-0.39;100.00;98604.06;6104905;19;20605;-70
2024/03/18 04:41:41;;;;;;;13.18;7.50;;;;;;;-0.34;100.00;98611.28;6105353;19;20117;-71
2024/03/18 04:43:41;;;;;;;14.25;7.43;;;;;;;-0.31;100.00;98597.09;6105356;19;20014;-71
2024/03/18 04:45:41;;;;;;;14.18;7.75;;;;;;;-0.31;100.00;98594.38;6102063;19;20040;-71
2024/03/18 04:47:44;;;;;;;10.93;6.60;;;;;;;-0.29;100.00;98605.75;6104896;19;20011;-70
2024/03/18 04:49:45;;;;;;;16.95;7.10;;;;;;;-0.33;100.00;98607.47;6104661;19;20006;-71
2024/03/18 04:51:45;;;;;;;17.00;7.88;;;;;;;-0.30;100.00;98604.94;6106708;19;20021;-71
2024/03/18 04:53:45;;;;;;;14.13;7.53;;;;;;;-0.28;100.00;98601.94;6108173;19;20014;-71
2024/03/18 04:55:46;;;;;;;13.30;7.68;;;;;;;-0.30;100.00;98596.78;6106685;19;20006;-71
2024/03/18 04:57:54;;;;;;;15.57;8.05;;;;;;;-0.28;100.00;98591.84;6107603;19;20010;-71
2024/03/18 04:59:55;;;;;;;17.15;7.50;;;;;;;-0.32;100.00;98601.75;6109208;19;20032;-71
2024/03/18 05:01:55;;;;;;;16.40;7.05;;;;;;;-0.37;100.00;98590.97;6106409;19;20038;-71
2024/03/18 05:03:55;;;;;;;15.63;7.45;;;;;;;-0.43;100.00;98596.78;6108343;19;20426;-71
2024/03/18 05:05:56;;;;;;;17.60;7.50;;;;;;;-0.47;100.00;98598.53;6106355;19;20066;-71
2024/03/18 05:07:57;;;;;;;15.23;7.82;;;;;;;-0.53;100.00;98600.53;6106656;19;20011;-71
2024/03/18 05:09:58;;;;;;;14.82;8.15;;;;;;;-0.54;100.00;98606.28;6108038;19;20074;-71
2024/03/18 05:11:58;;;;;;;14.82;7.35;;;;;;;-0.55;100.00;98602.75;6106164;19;20485;-71
2024/03/18 05:13:58;;;;;;;12.50;7.45;;;;;;;-0.49;100.00;98595.31;6107923;19;20007;-71
2024/03/18 05:15:59;;;;;;;13.43;6.57;;;;;;;-0.48;100.00;98596.91;6106018;19;20066;-71
2024/03/18 05:17:59;;;;;;;18.60;8.27;;;;;;;-0.46;100.00;98594.69;6107507;19;20463;-71
2024/03/18 05:20:00;;;;;;;15.18;7.95;;;;;;;-0.43;100.00;98602.22;6107682;19;20014;-71
2024/03/18 05:22:00;;;;;;;14.98;7.80;;;;;;;-0.43;100.00;98588.63;6106937;19;20031;-71
2024/03/18 05:24:00;;;;;;;13.68;6.88;;;;;;;-0.39;100.00;98590.47;6107100;19;20014;-71
2024/03/18 05:26:01;;;;;;;15.57;7.53;;;;;;;-0.37;100.00;98587.44;6105621;19;20010;-71
2024/03/18 05:28:01;;;;;;;15.25;8.63;;;;;;;-0.35;100.00;98575.13;6106628;19;20014;-71
2024/03/18 05:30:02;;;;;;;13.70;7.10;;;;;;;-0.34;100.00;98578.66;6106734;19;20469;-71
2024/03/18 05:32:10;;;;;;;14.50;8.25;;;;;;;-0.34;100.00;98573.22;6106152;19;20003;-71
2024/03/18 05:34:11;;;;;;;17.42;7.70;;;;;;;-0.36;100.00;98567.28;6107086;19;20466;-70
2024/03/18 05:36:11;;;;;;;15.60;7.53;;;;;;;-0.36;100.00;98559.94;6103107;19;20006;-70
2024/03/18 05:38:12;;;;;;;16.70;7.80;;;;;;;-0.38;100.00;98554.00;6106758;19;20019;-71
2024/03/18 05:40:12;;;;;;;18.75;8.30;;;;;;;-0.37;100.00;98558.34;6107872;19;20022;-71
2024/03/18 05:42:12;;;;;;;13.13;7.18;;;;;;;-0.36;100.00;98561.84;6104485;19;20283;-71
2024/03/18 05:44:13;;;;;;;16.85;7.20;;;;;;;-0.36;100.00;98557.22;6108398;19;20045;-71
2024/03/18 05:46:14;;;;;;;15.75;7.80;;;;;;;-0.41;100.00;98559.25;6111106;19;20521;-71
2024/03/18 05:48:14;;;;;;;14.70;7.60;;;;;;;-0.46;100.00;98554.72;6111675;19;20002;-71
2024/03/18 05:50:14;;;;;;;12.05;7.03;;;;;;;-0.48;100.00;98556.16;6111738;19;20026;-71
2024/03/18 05:52:15;;;;;;;14.27;7.78;;;;;;;-0.52;100.00;98557.84;6112959;19;20003;-71
2024/03/18 05:54:15;;;;;;;13.13;7.07;;;;;;;-0.55;100.00;98564.69;6111558;19;20034;-71
2024/03/18 05:56:16;;;;;;;12.73;6.57;;;;;;;-0.59;100.00;98558.25;6110266;19;19999;-71
2024/03/18 05:58:16;;;;;;;16.38;8.05;;;;;;;-0.65;100.00;98565.72;6112448;19;20070;-71
2024/03/18 06:00:18;;;;;;;14.02;8.38;;;;;;;-0.67;100.00;98565.19;6111797;19;20098;-71
2024/03/18 06:02:18;;;;;;;11.07;7.03;;;;;;;-0.63;100.00;98563.50;6111668;19;20006;-71
2024/03/18 06:04:20;;;;;;;13.13;7.38;;;;;;;-0.64;100.00;98561.88;6111563;19;20264;-71
2024/03/18 06:06:20;;;;;;;18.88;8.15;;;;;;;-0.59;100.00;98561.75;6109699;19;20058;-71
2024/03/18 06:08:20;;;;;;;14.35;7.22;;;;;;;-0.58;100.00;98560.69;6111034;19;20080;-71
2024/03/18 06:10:21;;;;;;;12.05;7.65;;;;;;;-0.54;100.00;98569.03;6103989;19;20407;-71
2024/03/18 06:12:25;;;;;;;11.70;7.32;;;;;;;-0.52;100.00;98574.16;6110705;19;20027;-71
2024/03/18 06:14:25;;;;;;;19.58;8.32;;;;;;;-0.49;100.00;98562.69;6112246;19;20027;-70
2024/03/18 06:16:26;;;;;;;13.02;7.68;;;;;;;-0.50;100.00;98563.78;6106693;19;20378;-70
2024/03/18 06:18:26;;;;;;;12.32;7.55;;;;;;;-0.50;100.00;98564.59;6111098;19;20099;-70
2024/03/18 06:20:26;;;;;;;17.02;7.80;;;;;;;-0.46;100.00;98572.94;6110898;19;20421;-70
2024/03/18 06:22:36;;;;;;;19.70;8.40;;;;;;;-0.47;100.00;98566.72;6111508;19;20338;-70
2024/03/18 06:27:03;;;;;;;15.75;7.72;;;;;;;-0.36;100.00;98551.78;6108001;19;20014;-70
2024/03/18 06:29:03;;;;;;;14.27;7.63;;;;;;;-0.28;100.00;98558.41;6111044;19;20810;-70
2024/03/18 06:31:05;;;;;;;14.52;7.63;;;;;;;-0.22;100.00;98554.50;6111474;19;20003;-70
2024/03/18 06:33:05;;;;;;;12.90;7.43;;;;;;;-0.14;100.00;98552.97;6111381;19;20451;-70
2024/03/18 06:35:06;;;;;;;13.45;7.70;;;;;;;-0.10;100.00;98560.19;6107148;19;20422;-70
2024/03/18 06:37:06;;;;;;;15.57;8.38;;;;;;;-0.02;100.00;98567.63;6108223;19;20043;-70
2024/03/18 06:39:08;;;;;;;16.95;9.15;;;;;;;0.02;100.00;98565.13;6110168;19;20007;-70
2024/03/18 06:41:09;;;;;;;13.10;7.97;;;;;;;0.07;100.00;98564.19;6111514;19;20010;-70
2024/03/18 06:43:09;;;;;;;21.85;9.35;;;;;;;0.13;100.00;98569.19;6110708;19;20336;-70
2024/03/18 06:45:11;;;;;;;16.88;8.35;;;;;;;0.16;100.00;98570.50;6109402;19;20006;-70
2024/03/18 06:47:12;;;;;;;14.70;7.97;;;;;;;0.18;100.00;98566.38;6108247;19;20090;-70
2024/03/18 06:49:12;;;;;;;17.35;8.43;;;;;;;0.23;100.00;98570.88;6108062;19;20010;-70
2024/03/18 06:51:16;;;;;;;15.75;8.18;;;;;;;0.27;100.00;98566.44;6110111;19;23477;-70
2024/03/18 06:53:16;;;;;;;19.65;8.20;;;;;;;0.35;100.00;98571.16;6109576;19;20006;-70
2024/03/18 06:55:17;;;;;;;12.75;8.48;;;;;;;0.42;100.00;98568.81;6106974;19;19999;-70
2024/03/18 06:57:17;;;;;;;14.50;8.25;;;;;;;0.48;100.00;98569.47;6107776;19;20005;-70
2024/03/18 06:59:17;;;;;;;14.38;8.35;;;;;;;0.54;100.00;98566.31;6111964;19;20002;-70
2024/03/18 07:01:18;;;;;;;16.10;8.73;;;;;;;0.63;100.00;98560.13;6110568;19;20002;-70
2024/03/18 07:03:20;;;;;;;15.25;8.25;;;;;;;0.70;100.00;98566.75;6110666;19;20343;-70
2024/03/18 07:05:22;;;;;;;14.25;8.57;;;;;;;0.81;100.00;98561.81;6111583;19;19999;-70
2024/03/18 07:07:22;;;;;;;16.70;8.50;;;;;;;0.90;100.00;98559.94;6109063;19;20463;-70
2024/03/18 07:09:22;;;;;;;16.70;8.43;;;;;;;0.97;100.00;98556.78;6107921;19;20014;-70
2024/03/18 07:11:23;;;;;;;15.52;7.70;;;;;;;1.06;100.00;98552.97;6103965;19;20013;-70
2024/03/18 07:13:24;;;;;;;15.70;8.27;;;;;;;1.16;100.00;98553.81;6104080;19;20002;-70
2024/03/18 07:15:24;;;;;;;14.98;8.25;;;;;;;1.24;100.00;98548.44;6102613;19;20038;-70
2024/03/18 07:17:25;;;;;;;17.15;8.82;;;;;;;1.33;100.00;98546.53;6102314;19;20402;-70
2024/03/18 07:19:25;;;;;;;18.40;9.30;;;;;;;1.42;100.00;98545.75;6104260;19;20009;-70
2024/03/18 07:21:26;;;;;;;15.02;8.25;;;;;;;1.46;100.00;98538.53;6103400;19;19999;-70
2024/03/18 07:23:26;;;;;;;14.93;7.78;;;;;;;1.53;100.00;98542.41;6103604;19;20003;-70
2024/03/18 07:25:27;;;;;;;18.08;8.77;;;;;;;1.57;100.00;98539.84;6103540;19;20013;-70
2024/03/18 07:27:28;;;;;;;18.88;9.77;;;;;;;1.60;100.00;98539.22;6103023;19;19998;-70
2024/03/18 07:29:28;;;;;;;16.27;9.95;;;;;;;1.68;100.00;98536.53;6102317;19;20600;-70
2024/03/18 07:31:30;;;;;;;19.13;11.35;;;;;;;1.77;100.00;98541.19;6103160;19;20006;-70
2024/03/18 07:33:31;;;;;;;19.40;11.73;;;;;;;1.82;100.00;98538.28;6103261;19;20459;-70
2024/03/18 07:35:31;;;;;;;19.15;10.07;;;;;;;1.88;100.00;98531.56;6100213;19;20247;-70
2024/03/18 07:37:32;;;;;;;17.52;10.50;;;;;;;1.94;100.00;98538.47;6102227;19;20002;-70
2024/03/18 07:39:32;;;;;;;18.65;10.02;;;;;;;1.99;100.00;98521.97;6104112;19;20405;-70
2024/03/18 07:41:35;;;;;;;18.80;10.00;;;;;;;2.07;100.00;98532.09;6103068;19;20459;-70
2024/03/18 07:43:35;;;;;;;17.25;9.60;;;;;;;2.14;100.00;98523.38;6103026;19;20529;-70
2024/03/18 07:45:36;;;;;;;17.98;9.40;;;;;;;2.19;100.00;98523.25;6101932;19;20146;-70
2024/03/18 07:47:36;;;;;;;16.80;9.43;;;;;;;2.27;100.00;98522.44;6102037;19;20028;-70
2024/03/18 07:49:40;;;;;;;17.77;9.30;;;;;;;2.40;100.00;98521.47;6102220;19;20006;-70
2024/03/18 07:51:40;;;;;;;13.68;8.40;;;;;;;2.49;100.00;98533.19;6103655;19;20334;-70
2024/03/18 07:53:41;;;;;;;14.10;8.73;;;;;;;2.61;100.00;98524.31;6102854;19;20575;-70
2024/03/18 07:55:42;;;;;;;15.95;9.07;;;;;;;2.68;100.00;98529.28;6101169;19;20034;-70
2024/03/18 07:57:42;;;;;;;14.93;8.45;;;;;;;2.75;100.00;98530.41;6102091;19;20344;-70
2024/03/18 07:59:42;;;;;;;14.15;8.95;;;;;;;2.80;100.00;98529.41;6102151;19;20024;-70
2024/03/18 08:01:43;;;;;;;20.15;9.13;;;;;;;2.91;100.00;98533.41;6101784;19;20030;-70
2024/03/18 08:03:43;;;;;;;18.70;10.75;;;;;;;2.98;100.00;98522.78;6102858;19;20466;-70
2024/03/18 08:05:44;;;;;;;14.35;9.15;;;;;;;3.08;100.00;98529.81;6100892;19;20280;-70
2024/03/18 08:07:44;;;;;;;14.95;9.60;;;;;;;3.19;100.00;98539.25;6102197;19;20017;-70
2024/03/18 08:09:45;;;;;;;20.20;9.70;;;;;;;3.28;100.00;98534.53;6104464;19;20030;-70
2024/03/18 08:11:47;;;;;;;13.73;8.68;;;;;;;3.37;100.00;98534.50;6109106;19;20491;-70
2024/03/18 08:13:47;;;;;;;15.90;9.07;;;;;;;3.50;100.00;98530.75;6109780;19;20007;-70
2024/03/18 08:15:48;;;;;;;14.93;8.45;;;;;;;3.59;100.00;98525.22;6108149;19;20328;-70
2024/03/18 08:17:48;;;;;;;15.95;8.98;;;;;;;3.70;100.00;98528.38;6108384;19;20410;-70
2024/03/18 08:19:48;;;;;;;15.80;8.82;;;;;;;3.80;100.00;98514.31;6109263;19;20023;-70
2024/03/18 08:21:49;;;;;;;18.90;9.38;;;;;;;3.89;100.00;98526.81;6109408;19;20010;-70
2024/03/18 08:23:49;;;;;;;17.73;9.00;;;;;;;3.94;100.00;98520.31;6108861;19;20006;-70
2024/03/18 08:25:49;;;;;;;18.80;9.35;;;;;;;4.02;100.00;98513.97;6107408;19;20030;-70
2024/03/18 08:27:50;;;;;;;16.35;10.63;;;;;;;4.17;100.00;98526.28;6108886;19;20014;-70
2024/03/18 08:29:50;;;;;;;16.50;9.82;;;;;;;4.24;100.00;98526.53;6108149;19;20007;-70
2024/03/18 08:31:50;;;;;;;19.80;10.00;;;;;;;4.31;100.00;98521.34;6109088;19;20364;-70
2024/03/18 08:33:51;;;;;;;14.38;9.00;;;;;;;4.43;100.00;98524.13;6108379;19;20466;-70
2024/03/18 08:35:52;;;;;;;14.82;8.43;;;;;;;4.52;100.00;98526.78;6104486;19;20006;-70
2024/03/18 08:37:52;;;;;;;15.68;9.32;;;;;;;4.59;100.00;98524.28;6109121;19;20011;-70
2024/03/18 08:39:54;;;;;;;15.05;9.52;;;;;;;4.65;100.00;98528.44;6107999;19;20090;-70
2024/03/18 08:41:55;;;;;;;16.90;9.15;;;;;;;4.71;100.00;98531.75;6107517;19;20441;-70
2024/03/18 08:43:56;;;;;;;19.52;10.80;;;;;;;4.78;100.00;98532.78;6109203;19;20072;-70
2024/03/18 08:45:57;;;;;;;17.50;10.00;;;;;;;4.86;100.00;98536.59;6105591;19;20014;-70
2024/03/18 08:47:57;;;;;;;17.45;9.48;;;;;;;4.94;100.00;98537.63;6108389;19;20125;-70
2024/03/18 08:49:58;;;;;;;13.02;8.82;;;;;;;5.01;100.00;98532.41;6109005;19;20011;-70
2024/03/18 08:51:58;;;;;;;15.30;9.68;;;;;;;5.08;100.00;98540.88;6108070;19;20022;-70
2024/03/18 08:53:58;;;;;;;17.25;8.88;;;;;;;5.16;100.00;98539.16;6107922;19;20698;-70
2024/03/18 08:55:59;;;;;;;16.65;10.30;;;;;;;5.20;100.00;98543.63;6107411;19;20074;-70
2024/03/18 08:57:59;;;;;;;14.55;9.15;;;;;;;5.24;100.00;98527.28;6105624;19;20023;-70
2024/03/18 09:00:00;;;;;;;16.05;8.93;;;;;;;5.26;100.00;98535.97;6107161;19;20017;-70
2024/03/18 09:02:01;;;;;;;13.60;8.95;;;;;;;5.26;100.00;98530.50;6106852;19;20021;-70
2024/03/18 09:04:01;;;;;;;16.55;9.20;;;;;;;5.26;100.00;98538.72;6106717;19;20018;-70
2024/03/18 09:06:03;;;;;;;14.32;9.23;;;;;;;5.25;100.00;98540.66;6106439;19;20469;-71
2024/03/18 09:08:04;;;;;;;14.00;8.70;;;;;;;5.24;100.00;98535.53;6107600;19;20023;-70
2024/03/18 09:10:10;;;;;;;14.77;9.23;;;;;;;5.27;100.00;98530.16;6107494;19;20721;-70
2024/03/18 09:12:10;;;;;;;17.02;9.07;;;;;;;5.29;100.00;98535.28;6108587;19;20427;-70
2024/03/18 09:14:10;;;;;;;15.77;9.38;;;;;;;5.33;100.00;98537.00;6106842;19;19999;-70
2024/03/18 09:16:11;;;;;;;12.18;8.43;;;;;;;5.45;100.00;98532.66;6104993;19;20511;-71
2024/03/18 09:18:11;;;;;;;14.63;9.05;;;;;;;5.51;100.00;98525.81;6108000;19;20098;-70
2024/03/18 09:20:17;;;;;;;13.73;9.30;;;;;;;5.59;100.00;98533.13;6112729;19;20058;-70
2024/03/18 09:22:17;;;;;;;15.75;8.38;;;;;;;5.69;100.00;98526.38;6113046;19;20017;-70